createdAt,value
2023-05-10T00:02:11.834Z,7.50
2023-05-10T00:04:49.391Z,8.30
2023-05-10T00:07:28.237Z,8.40
2023-05-10T00:10:05.250Z,5.60
2023-05-10T00:12:43.578Z,7.00
2023-05-10T00:15:21.351Z,9.30
2023-05-10T00:17:59.224Z,5.10
2023-05-10T00:20:37.013Z,6.30
2023-05-10T00:23:14.718Z,5.40
2023-05-10T00:25:52.268Z,4.00
2023-05-10T00:28:31.366Z,4.00
2023-05-10T00:31:09.589Z,4.20
2023-05-10T00:33:47.251Z,5.80
2023-05-10T00:36:24.154Z,4.30
2023-05-10T00:39:01.646Z,4.30
2023-05-10T00:41:38.682Z,3.60
2023-05-10T00:44:15.743Z,5.20
2023-05-10T00:46:54.411Z,6.10
2023-05-10T00:49:32.611Z,4.60
2023-05-10T00:52:10.102Z,5.30
2023-05-10T00:54:47.381Z,4.20
2023-05-10T00:57:25.148Z,3.20
2023-05-10T01:00:03.516Z,6.70
2023-05-10T01:02:43.981Z,5.50
2023-05-10T01:05:20.851Z,4.60
2023-05-10T01:07:58.435Z,4.10
2023-05-10T01:10:36.052Z,4.40
2023-05-10T01:13:13.797Z,5.20
2023-05-10T01:15:53.203Z,4.50
2023-05-10T01:18:30.722Z,5.60
2023-05-10T01:21:27.065Z,8.70
2023-05-10T01:24:44.000Z,5.20
2023-05-10T01:28:16.155Z,3.50
2023-05-10T01:31:28.011Z,3.50
2023-05-10T01:34:15.648Z,4.30
2023-05-10T01:37:07.220Z,6.80
2023-05-10T01:39:56.005Z,5.40
2023-05-10T01:42:40.286Z,3.90
2023-05-10T01:45:29.398Z,4.40
2023-05-10T01:48:16.343Z,4.00
2023-05-10T01:50:54.931Z,3.90
2023-05-10T01:53:32.510Z,3.50
2023-05-10T01:56:13.026Z,4.20
2023-05-10T01:58:56.199Z,3.20
2023-05-10T02:01:34.264Z,3.60
2023-05-10T02:04:13.370Z,3.50
2023-05-10T02:06:52.569Z,3.50
2023-05-10T02:09:34.057Z,3.80
2023-05-10T02:12:13.535Z,2.80
2023-05-10T02:14:52.833Z,3.30
2023-05-10T02:17:32.579Z,4.80
2023-05-10T02:20:14.290Z,5.20
2023-05-10T02:22:54.222Z,3.10
2023-05-10T02:25:33.054Z,4.40
2023-05-10T02:28:15.106Z,4.90
2023-05-10T02:30:55.361Z,3.10
2023-05-10T02:33:34.826Z,4.00
2023-05-10T02:36:17.852Z,3.20
2023-05-10T02:38:57.744Z,4.10
2023-05-10T02:41:36.908Z,3.80
2023-05-10T02:44:16.193Z,4.60
2023-05-10T02:46:55.300Z,4.00
2023-05-10T02:49:32.866Z,4.00
2023-05-10T02:52:11.718Z,4.20
2023-05-10T02:54:52.949Z,3.90
2023-05-10T02:57:36.732Z,3.90
2023-05-10T03:00:18.985Z,3.50
2023-05-10T03:02:57.617Z,4.10
2023-05-10T03:05:36.919Z,4.30
2023-05-10T03:08:16.621Z,3.40
2023-05-10T03:11:25.985Z,2.70
2023-05-10T03:14:21.276Z,4.30
2023-05-10T03:17:09.361Z,5.10
2023-05-10T03:19:57.157Z,3.60
2023-05-10T03:22:42.720Z,3.90
2023-05-10T03:25:22.288Z,4.70
2023-05-10T03:28:00.776Z,4.30
2023-05-10T03:30:38.561Z,4.20
2023-05-10T03:33:17.694Z,4.10
2023-05-10T03:35:58.086Z,3.30
2023-05-10T03:38:35.367Z,4.20
2023-05-10T03:41:14.440Z,4.20
2023-05-10T03:43:51.989Z,4.20
2023-05-10T03:46:30.535Z,5.30
2023-05-10T03:49:08.793Z,4.10
2023-05-10T03:51:47.125Z,5.40
2023-05-10T03:54:24.844Z,3.50
2023-05-10T03:57:04.158Z,4.30
2023-05-10T03:59:41.884Z,3.90
2023-05-10T04:02:19.269Z,3.00
2023-05-10T04:04:56.315Z,4.50
2023-05-10T04:07:33.416Z,3.20
2023-05-10T04:10:13.249Z,4.80
2023-05-10T04:12:50.492Z,5.50
2023-05-10T04:15:29.240Z,5.00
2023-05-10T04:18:08.936Z,3.50
2023-05-10T04:20:46.613Z,3.80
2023-05-10T04:23:25.265Z,4.00
2023-05-10T04:26:08.306Z,3.30
2023-05-10T04:28:45.703Z,3.40
2023-05-10T04:31:23.469Z,3.30
2023-05-10T04:34:00.342Z,3.60
2023-05-10T04:36:38.104Z,4.10
2023-05-10T04:39:15.132Z,3.70
2023-05-10T04:41:52.570Z,4.30
2023-05-10T04:44:30.577Z,4.10
2023-05-10T04:47:09.373Z,3.40
2023-05-10T04:49:47.603Z,3.30
2023-05-10T04:52:25.258Z,4.60
2023-05-10T04:55:03.291Z,3.10
2023-05-10T04:57:40.932Z,5.40
2023-05-10T05:00:24.318Z,3.90
2023-05-10T05:03:01.556Z,4.40
2023-05-10T05:05:39.244Z,3.20
2023-05-10T05:08:16.876Z,4.00
2023-05-10T05:10:55.023Z,3.40
2023-05-10T05:13:33.133Z,3.10
2023-05-10T05:16:13.398Z,3.40
2023-05-10T05:18:51.648Z,3.80
2023-05-10T05:21:28.439Z,3.90
2023-05-10T05:24:06.749Z,4.70
2023-05-10T05:26:45.274Z,3.40
2023-05-10T05:29:21.900Z,3.40
2023-05-10T05:32:00.398Z,3.50
2023-05-10T05:34:38.036Z,4.70
2023-05-10T05:37:19.433Z,3.80
2023-05-10T05:39:56.223Z,4.00
2023-05-10T05:42:35.240Z,3.60
2023-05-10T05:45:16.324Z,4.20
2023-05-10T05:47:53.371Z,3.80
2023-05-10T05:50:31.102Z,3.50
2023-05-10T05:53:09.787Z,6.40
2023-05-10T05:55:57.307Z,5.00
2023-05-10T05:58:35.358Z,4.10
2023-05-10T06:01:13.264Z,3.20
2023-05-10T06:03:53.180Z,4.60
2023-05-10T06:06:31.947Z,4.30
2023-05-10T06:09:09.298Z,3.00
2023-05-10T06:11:47.742Z,4.20
2023-05-10T06:14:27.602Z,3.80
2023-05-10T06:17:06.382Z,3.70
2023-05-10T06:19:43.926Z,3.20
2023-05-10T06:22:21.256Z,3.30
2023-05-10T06:24:58.182Z,4.80
2023-05-10T06:27:36.016Z,4.30
2023-05-10T06:30:19.462Z,4.20
2023-05-10T06:32:58.565Z,3.90
2023-05-10T06:35:36.839Z,4.30
2023-05-10T06:38:14.552Z,3.40
2023-05-10T06:40:51.929Z,4.50
2023-05-10T06:43:29.929Z,5.20
2023-05-10T06:46:07.781Z,6.00
2023-05-10T06:48:45.246Z,4.00
2023-05-10T06:51:24.275Z,4.00
2023-05-10T06:54:01.358Z,3.50
2023-05-10T06:56:38.948Z,4.70
2023-05-10T06:59:17.736Z,3.90
2023-05-10T07:01:56.599Z,4.60
2023-05-10T07:04:33.854Z,5.20
2023-05-10T07:07:11.439Z,5.60
2023-05-10T07:09:49.508Z,4.00
2023-05-10T07:12:26.836Z,3.00
2023-05-10T07:15:04.570Z,3.70
2023-05-10T07:17:44.111Z,3.30
2023-05-10T07:20:25.247Z,3.70
2023-05-10T07:23:03.638Z,5.90
2023-05-10T07:25:41.254Z,5.40
2023-05-10T07:28:19.521Z,4.50
2023-05-10T07:30:57.291Z,4.70
2023-05-10T07:33:35.018Z,8.70
2023-05-10T07:36:13.837Z,4.50
2023-05-10T07:38:50.668Z,4.40
2023-05-10T07:41:27.183Z,3.90
2023-05-10T07:44:04.757Z,4.50
2023-05-10T07:46:41.815Z,4.30
2023-05-10T07:49:18.959Z,4.70
2023-05-10T07:51:56.385Z,5.50
2023-05-10T07:54:33.823Z,4.90
2023-05-10T07:57:11.102Z,4.00
2023-05-10T07:59:48.961Z,6.90
2023-05-10T08:02:26.372Z,3.60
2023-05-10T08:05:03.956Z,5.60
2023-05-10T08:07:42.459Z,5.10
2023-05-10T08:10:20.549Z,5.60
2023-05-10T08:12:59.675Z,5.30
2023-05-10T08:15:36.343Z,5.10
2023-05-10T08:18:14.414Z,5.20
2023-05-10T08:20:51.632Z,5.90
2023-05-10T08:23:29.643Z,4.80
2023-05-10T08:26:07.617Z,5.00
2023-05-10T08:29:02.870Z,4.90
2023-05-10T08:31:41.031Z,4.30
2023-05-10T08:34:18.031Z,5.30
2023-05-10T08:36:55.011Z,5.00
2023-05-10T08:39:32.560Z,4.10
2023-05-10T08:42:12.616Z,6.70
2023-05-10T08:44:52.225Z,3.40
2023-05-10T08:47:30.989Z,6.00
2023-05-10T08:50:12.050Z,4.20
2023-05-10T08:52:52.020Z,4.20
2023-05-10T08:55:29.862Z,4.20
2023-05-10T08:58:23.685Z,3.80
2023-05-10T09:01:02.324Z,4.30
2023-05-10T09:03:39.111Z,3.80
2023-05-10T09:06:17.728Z,4.50
2023-05-10T09:08:55.299Z,3.70
2023-05-10T09:11:32.638Z,3.90
2023-05-10T09:14:11.043Z,3.70
2023-05-10T09:16:46.993Z,3.50
2023-05-10T09:19:23.765Z,4.10
2023-05-10T09:22:03.610Z,3.50
2023-05-10T09:24:44.119Z,3.20
2023-05-10T09:27:21.052Z,3.30
2023-05-10T09:29:58.190Z,2.90
2023-05-10T09:32:47.081Z,3.90
2023-05-10T09:35:27.984Z,3.50
2023-05-10T09:38:09.366Z,4.90
2023-05-10T09:40:55.466Z,3.20
2023-05-10T09:43:32.690Z,3.10
2023-05-10T09:46:17.296Z,3.10
2023-05-10T09:48:54.381Z,3.10
2023-05-10T09:51:32.019Z,3.00
2023-05-10T09:54:19.996Z,4.20
2023-05-10T09:56:57.471Z,3.20
2023-05-10T09:59:36.674Z,3.30
2023-05-10T10:02:14.015Z,4.20
2023-05-10T10:04:53.061Z,3.20
2023-05-10T10:07:33.589Z,3.00
2023-05-10T10:10:14.999Z,4.20
2023-05-10T10:12:52.551Z,3.20
2023-05-10T10:15:30.457Z,3.90
2023-05-10T10:18:08.825Z,3.70
2023-05-10T10:20:46.132Z,5.50
2023-05-10T10:23:23.847Z,6.50
2023-05-10T10:26:03.666Z,3.30
2023-05-10T10:28:53.247Z,2.90
2023-05-10T10:31:43.902Z,2.80
2023-05-10T10:34:32.409Z,4.30
2023-05-10T10:37:13.120Z,3.60
2023-05-10T10:39:51.764Z,3.80
2023-05-10T10:42:52.990Z,5.60
2023-05-10T10:45:30.758Z,3.00
2023-05-10T10:48:30.491Z,3.50
2023-05-10T10:51:06.980Z,3.20
2023-05-10T10:53:47.670Z,3.80
2023-05-10T10:56:29.891Z,3.50
2023-05-10T10:59:09.081Z,3.30
2023-05-10T11:01:55.276Z,4.50
2023-05-10T11:04:45.964Z,4.10
2023-05-10T11:07:27.497Z,5.40
2023-05-10T11:10:11.037Z,3.70
2023-05-10T11:13:05.391Z,4.10
2023-05-10T11:15:43.553Z,3.30
2023-05-10T11:18:34.442Z,3.40
2023-05-10T11:21:14.672Z,3.70
2023-05-10T11:24:01.644Z,3.40
2023-05-10T11:26:41.409Z,3.40
2023-05-10T11:29:19.654Z,4.20
2023-05-10T11:31:56.793Z,4.10
2023-05-10T11:34:35.291Z,3.70
2023-05-10T11:37:12.893Z,2.90
2023-05-10T11:39:54.503Z,3.00
2023-05-10T11:42:31.185Z,3.60
2023-05-10T11:45:11.467Z,4.30
2023-05-10T11:47:52.158Z,4.20
2023-05-10T11:50:29.724Z,3.30
2023-05-10T11:53:07.078Z,4.80
2023-05-10T11:55:44.798Z,3.20
2023-05-10T11:58:31.648Z,4.10
2023-05-10T12:01:11.585Z,3.80
2023-05-10T12:03:49.417Z,3.70
2023-05-10T12:06:26.653Z,4.30
2023-05-10T12:09:09.059Z,3.90
2023-05-10T12:11:49.066Z,4.20
2023-05-10T12:14:28.202Z,3.00
2023-05-10T12:17:05.673Z,4.90
2023-05-10T12:19:46.762Z,3.60
2023-05-10T12:22:26.720Z,2.70
2023-05-10T12:25:05.178Z,4.40
2023-05-10T12:27:42.704Z,3.10
2023-05-10T12:30:27.961Z,4.10
2023-05-10T12:33:15.091Z,3.80
2023-05-10T12:35:57.555Z,3.00
2023-05-10T12:38:41.768Z,3.60
2023-05-10T12:41:21.173Z,4.00
2023-05-10T12:43:57.934Z,4.20
2023-05-10T12:46:35.104Z,5.00
2023-05-10T12:49:11.680Z,3.70
2023-05-10T12:51:49.487Z,4.90
2023-05-10T12:54:26.758Z,4.70
2023-05-10T12:57:03.727Z,5.40
2023-05-10T12:59:41.476Z,5.70
2023-05-10T13:02:19.299Z,3.80
2023-05-10T13:04:56.072Z,4.50
2023-05-10T13:07:33.633Z,3.50
2023-05-10T13:10:12.710Z,3.40
2023-05-10T13:12:49.340Z,5.70
2023-05-10T13:15:25.579Z,4.40
2023-05-10T13:18:02.532Z,5.30
2023-05-10T13:20:39.088Z,4.40
2023-05-10T13:23:16.558Z,4.10
2023-05-10T13:25:53.212Z,3.40
2023-05-10T13:28:30.996Z,4.50
2023-05-10T13:31:08.005Z,3.80
2023-05-10T13:33:44.827Z,3.20
2023-05-10T13:36:22.756Z,4.80
2023-05-10T13:38:59.701Z,4.00
2023-05-10T13:41:38.121Z,4.00
2023-05-10T13:44:19.988Z,3.70
2023-05-10T13:46:59.434Z,3.90
2023-05-10T13:49:37.587Z,6.20
2023-05-10T13:52:13.709Z,4.80
2023-05-10T13:54:50.713Z,4.70
2023-05-10T13:57:27.968Z,4.60
2023-05-10T14:00:04.933Z,4.50
2023-05-10T14:02:45.022Z,4.70
2023-05-10T14:05:25.389Z,4.70
2023-05-10T14:08:05.357Z,4.00
2023-05-10T14:10:42.411Z,3.80
2023-05-10T14:13:19.415Z,4.30
2023-05-10T14:15:56.634Z,4.30
2023-05-10T14:18:32.861Z,4.10
2023-05-10T14:21:11.059Z,4.40
2023-05-10T14:23:48.942Z,4.40
2023-05-10T14:26:27.860Z,3.30
2023-05-10T14:29:04.496Z,6.70
2023-05-10T14:31:57.963Z,3.00
2023-05-10T14:34:46.895Z,4.60
2023-05-10T14:37:23.832Z,3.50
2023-05-10T14:40:05.591Z,3.90
2023-05-10T14:42:44.270Z,3.80
2023-05-10T14:45:21.337Z,4.00
2023-05-10T14:47:58.404Z,3.40
2023-05-10T14:50:36.573Z,3.70
2023-05-10T14:53:14.732Z,4.80
2023-05-10T14:55:52.121Z,5.30
2023-05-10T14:58:29.266Z,5.10
2023-05-10T15:01:05.355Z,4.00
2023-05-10T15:03:42.769Z,4.10
2023-05-10T15:06:20.402Z,4.70
2023-05-10T15:08:56.789Z,5.00
2023-05-10T15:11:33.556Z,4.70
2023-05-10T15:14:09.989Z,5.20
2023-05-10T15:16:46.675Z,4.90
2023-05-10T15:19:24.060Z,5.00
2023-05-10T15:22:01.674Z,4.60
2023-05-10T15:24:39.744Z,7.10
2023-05-10T15:27:17.047Z,5.40
2023-05-10T15:29:55.291Z,4.50
2023-05-10T15:32:34.226Z,5.00
2023-05-10T15:35:14.062Z,4.90
2023-05-10T15:37:51.121Z,4.90
2023-05-10T15:40:28.087Z,5.90
2023-05-10T15:43:04.606Z,4.10
2023-05-10T15:45:42.583Z,4.00
2023-05-10T15:48:20.928Z,3.80
2023-05-10T15:51:00.014Z,4.10
2023-05-10T15:53:38.460Z,5.80
2023-05-10T15:56:18.080Z,4.70
2023-05-10T15:58:54.769Z,5.60
2023-05-10T16:01:33.179Z,4.70
2023-05-10T16:04:10.084Z,4.60
2023-05-10T16:06:47.174Z,5.80
2023-05-10T16:09:24.367Z,5.60
2023-05-10T16:12:01.533Z,5.60
2023-05-10T16:14:39.082Z,6.80
2023-05-10T16:17:16.757Z,4.80
2023-05-10T16:19:54.112Z,6.60
2023-05-10T16:22:30.752Z,6.20
2023-05-10T16:25:08.661Z,5.80
2023-05-10T16:27:45.775Z,6.20
2023-05-10T16:30:24.929Z,5.10
2023-05-10T16:33:03.459Z,6.10
2023-05-10T16:35:40.266Z,6.80
2023-05-10T16:38:17.487Z,7.60
2023-05-10T16:40:54.775Z,7.10
2023-05-10T16:43:32.065Z,8.10
2023-05-10T16:46:15.130Z,6.80
2023-05-10T16:48:52.416Z,5.50
2023-05-10T16:51:30.672Z,6.20
2023-05-10T16:54:07.733Z,6.20
2023-05-10T16:56:45.090Z,4.70
2023-05-10T16:59:22.788Z,4.00
2023-05-10T17:02:00.116Z,4.40
2023-05-10T17:04:37.195Z,3.80
2023-05-10T17:07:14.565Z,4.10
2023-05-10T17:09:51.993Z,4.70
2023-05-10T17:12:28.839Z,4.90
2023-05-10T17:15:06.421Z,4.70
2023-05-10T17:17:43.280Z,4.00
2023-05-10T17:20:21.143Z,5.80
2023-05-10T17:22:58.575Z,4.70
2023-05-10T17:25:35.251Z,4.20
2023-05-10T17:28:12.139Z,3.80
2023-05-10T17:30:48.807Z,4.10
2023-05-10T17:33:25.485Z,3.40
2023-05-10T17:36:02.976Z,3.80
2023-05-10T17:38:38.044Z,3.30
2023-05-10T17:41:16.747Z,3.50
2023-05-10T17:43:54.279Z,4.80
2023-05-10T17:46:31.914Z,6.70
2023-05-10T17:49:08.229Z,6.70
2023-05-10T17:51:48.142Z,6.00
2023-05-10T17:54:26.532Z,6.00
2023-05-10T17:57:04.627Z,6.90
2023-05-10T17:59:40.915Z,6.20
2023-05-10T18:02:18.401Z,6.30
2023-05-10T18:04:57.585Z,5.50
2023-05-10T18:07:37.666Z,5.30
2023-05-10T18:10:18.551Z,5.20
2023-05-10T18:12:54.545Z,4.60
2023-05-10T18:15:31.579Z,6.10
2023-05-10T18:18:09.270Z,6.20
2023-05-10T18:20:46.608Z,4.90
2023-05-10T18:23:23.658Z,4.30
2023-05-10T18:26:00.959Z,4.70
2023-05-10T18:28:39.598Z,5.50
2023-05-10T18:31:17.304Z,7.00
2023-05-10T18:33:54.901Z,5.40
2023-05-10T18:36:32.412Z,5.70
2023-05-10T18:39:09.054Z,5.30
2023-05-10T18:41:45.870Z,5.30
2023-05-10T18:44:26.277Z,6.70
2023-05-10T18:47:03.138Z,5.80
2023-05-10T18:49:40.990Z,7.20
2023-05-10T18:52:18.066Z,5.60
2023-05-10T18:54:56.277Z,7.00
2023-05-10T18:57:32.910Z,5.40
2023-05-10T19:00:15.587Z,7.60
2023-05-10T19:02:54.140Z,7.00
2023-05-10T19:05:33.594Z,7.30
2023-05-10T19:08:11.975Z,7.20
2023-05-10T19:10:50.313Z,8.30
2023-05-10T19:13:29.277Z,10.70
2023-05-10T19:16:28.445Z,8.60
2023-05-10T19:19:10.417Z,7.70
2023-05-10T19:21:56.466Z,8.50
2023-05-10T19:24:41.971Z,8.40
2023-05-10T19:27:27.709Z,8.30
2023-05-10T19:30:14.111Z,8.70
2023-05-10T19:32:57.916Z,8.50
2023-05-10T19:35:35.826Z,8.10
2023-05-10T19:38:25.199Z,9.20
2023-05-10T19:41:16.723Z,8.60
2023-05-10T19:44:00.707Z,9.60
2023-05-10T19:46:43.645Z,8.90
2023-05-10T19:49:25.328Z,9.00
2023-05-10T19:52:10.051Z,10.10
2023-05-10T19:54:49.943Z,8.40
2023-05-10T19:57:29.642Z,8.70
2023-05-10T20:00:07.568Z,9.60
2023-05-10T20:02:51.758Z,9.90
2023-05-10T20:05:34.203Z,10.70
2023-05-10T20:08:14.528Z,12.20
2023-05-10T20:10:59.252Z,11.20
2023-05-10T20:13:36.760Z,10.90
2023-05-10T20:16:18.567Z,10.90
2023-05-10T20:19:12.213Z,11.30
2023-05-10T20:21:56.288Z,10.60
2023-05-10T20:24:34.474Z,13.60
2023-05-10T20:27:17.338Z,13.70
2023-05-10T20:29:57.082Z,13.50
2023-05-10T20:32:38.363Z,11.50
2023-05-10T20:35:17.449Z,13.10
2023-05-10T20:38:02.459Z,13.20
2023-05-10T20:40:40.369Z,14.10
2023-05-10T20:43:26.618Z,12.30
2023-05-10T20:46:05.724Z,13.70
2023-05-10T20:48:42.864Z,14.10
2023-05-10T20:51:24.220Z,14.10
2023-05-10T20:54:06.724Z,13.80
2023-05-10T20:56:44.088Z,14.30
2023-05-10T20:59:21.094Z,14.60
2023-05-10T21:01:58.774Z,13.30
2023-05-10T21:04:37.624Z,13.30
2023-05-10T21:07:15.067Z,14.20
2023-05-10T21:09:52.767Z,15.20
2023-05-10T21:12:29.767Z,14.30
2023-05-10T21:15:15.522Z,16.20
2023-05-10T21:17:54.062Z,17.10
2023-05-10T21:20:32.298Z,16.20
2023-05-10T21:23:09.110Z,17.20
2023-05-10T21:25:46.452Z,16.40
2023-05-10T21:28:23.694Z,14.90
2023-05-10T21:31:01.580Z,15.90
2023-05-10T21:33:38.164Z,15.70
2023-05-10T21:36:17.498Z,14.90
2023-05-10T21:38:54.769Z,19.20
2023-05-10T21:41:30.908Z,20.00
2023-05-10T21:44:07.733Z,16.60
2023-05-10T21:46:45.266Z,17.80
2023-05-10T21:49:22.190Z,20.40
2023-05-10T21:51:58.713Z,18.40
2023-05-10T21:54:35.238Z,20.60
2023-05-10T21:57:12.325Z,20.30
2023-05-10T21:59:49.159Z,19.60
2023-05-10T22:02:26.184Z,18.30
2023-05-10T22:05:02.625Z,18.80
2023-05-10T22:07:40.346Z,18.00
2023-05-10T22:10:19.618Z,20.70
2023-05-10T22:12:56.590Z,20.20
2023-05-10T22:15:34.162Z,18.60
2023-05-10T22:18:12.909Z,19.30
2023-05-10T22:20:53.153Z,20.90
2023-05-10T22:23:30.505Z,19.00
2023-05-10T22:26:10.738Z,19.40
2023-05-10T22:28:48.404Z,20.30
2023-05-10T22:31:25.602Z,19.70
2023-05-10T22:34:02.579Z,20.30
2023-05-10T22:36:40.026Z,21.90
2023-05-10T22:39:16.182Z,19.80
2023-05-10T22:41:53.169Z,21.50
2023-05-10T22:44:30.352Z,23.30
2023-05-10T22:47:09.397Z,21.30
2023-05-10T22:49:47.393Z,20.70
2023-05-10T22:52:24.421Z,19.80
2023-05-10T22:55:00.492Z,20.90
2023-05-10T22:57:37.014Z,19.00
2023-05-10T23:00:21.902Z,18.00
2023-05-10T23:03:00.100Z,16.00
2023-05-10T23:05:37.416Z,15.70
2023-05-10T23:08:13.838Z,15.30
2023-05-10T23:10:50.093Z,14.70
2023-05-10T23:13:27.826Z,11.60
2023-05-10T23:16:10.231Z,10.00
2023-05-10T23:18:47.275Z,9.30
2023-05-10T23:21:25.380Z,8.30
2023-05-10T23:24:02.156Z,8.00
2023-05-10T23:26:39.284Z,8.10
2023-05-10T23:29:15.977Z,5.30
2023-05-10T23:31:55.843Z,4.40
2023-05-10T23:34:32.559Z,5.30
2023-05-10T23:37:08.646Z,3.90
2023-05-10T23:39:45.991Z,5.50
2023-05-10T23:42:23.449Z,3.90
2023-05-10T23:45:00.642Z,4.30
2023-05-10T23:47:37.991Z,4.30
2023-05-10T23:50:18.434Z,4.90
2023-05-10T23:52:55.214Z,4.10
2023-05-10T23:55:31.900Z,6.60
2023-05-10T23:58:08.889Z,6.60
